Simcha — PE7688 — position and weather

sailwx.info

Track history (hours):
 
Tides and Currents Weather Stations Pressure Air Temp Water Temp Dewpoint Dewpoint Depression Visibility Wind Speed Wind Dir Waves Ship Positions

Simcha

Last reported at 2017-Jan-20 19:32 UTC. Time now 2017-Jan-21 02:16 UTC.
Position N 52°15' E 006°48'.

Length 110 m.

Type: Ship. MMSI: 244780014.

Date/timePositionNaut miles runAvg speedWind from/ knotsBaromVisibWave heightAir tempDewpointWater temp
2017-Jan-20 19:32N 52°15' E 006°48'2 2.4
2017-Jan-20 18:33N 52°15' E 006°44'4 3.1
2017-Jan-20 17:13N 52°14' E 006°38'8 7.2
2017-Jan-20 16:07N 52°10' E 006°26'4 6.4
2017-Jan-20 15:32N 52°10' E 006°20'6 1.9
2017-Jan-20 12:23N 52°06' E 006°13'5 6.4
2017-Jan-20 11:33N 52°02' E 006°08'6 5.6
2017-Jan-20 10:34N 51°59' E 006°00'6 6.3
2017-Jan-20 09:33N 51°53' E 006°02'10 9.7
2017-Jan-20 08:34N 51°49' E 006°17'12 8.6
2017-Jan-20 07:07N 51°40' E 006°30'4 7.0
2017-Jan-20 06:33N 51°38' E 006°35'0 0.0
2017-Jan-18 17:31N 51°37' E 006°35'3 3.4
2017-Jan-18 16:33N 51°40' E 006°32'8 4.1
2017-Jan-18 14:33N 51°45' E 006°22'6 5.7
2017-Jan-18 13:33N 51°49' E 006°16'5 5.0
2017-Jan-18 12:33N 51°51' E 006°08'5 5.2
2017-Jan-18 11:34N 51°54' E 006°01'5 4.8
2017-Jan-18 10:33N 51°58' E 005°57'3 3.0
2017-Jan-18 09:33N 51°60' E 006°02'2 2.2
2017-Jan-18 08:33N 51°60' E 006°05'3 2.8
2017-Jan-18 07:33N 52°02' E 006°07'10 0.4
2017-Jan-17 08:09N 52°10' E 006°18'4 6.6
2017-Jan-17 07:32N 52°10' E 006°24'6 5.5
2017-Jan-17 06:26N 52°13' E 006°33'2 1.8
2017-Jan-17 05:34N 52°14' E 006°35'0 0.0
2017-Jan-17 04:33N 52°14' E 006°35'0 0.0
2017-Jan-17 03:34N 52°14' E 006°35'0 0.0
2017-Jan-17 02:34N 52°14' E 006°35'0 0.0
2017-Jan-17 01:34N 52°14' E 006°35'0 0.0
2017-Jan-17 00:34N 52°14' E 006°35'0 0.0
2017-Jan-16 23:33N 52°14' E 006°35'0 0.0
2017-Jan-16 22:34N 52°14' E 006°35'0 0.0
2017-Jan-16 21:34N 52°14' E 006°35'0 0.0
2017-Jan-16 20:34N 52°14' E 006°35'0 0.0
2017-Jan-16 19:34N 52°14' E 006°35'0 0.1
2017-Jan-16 18:34N 52°14' E 006°35'6 1.9
2017-Jan-16 15:33N 52°15' E 006°44'2 2.2
2017-Jan-16 14:33N 52°15' E 006°48'0 0.0
2017-Jan-16 13:33N 52°15' E 006°48'0 0.0
2017-Jan-16 12:32N 52°15' E 006°48'0 0.0
2017-Jan-16 11:32N 52°15' E 006°48'0 0.4
2017-Jan-16 10:33N 52°15' E 006°47'6 4.4
2017-Jan-16 09:15N 52°14' E 006°38'7 6.7
2017-Jan-16 08:12N 52°11' E 006°28'4 5.8
2017-Jan-16 07:32N 52°10' E 006°22'9 0.8
2017-Jan-15 20:31N 52°05' E 006°10'6 5.9
2017-Jan-15 19:33N 52°00' E 006°05'6 6.0
2017-Jan-15 18:33N 51°56' E 005°58'9 8.9
2017-Jan-15 17:33N 51°51' E 006°09'11 9.6
2017-Jan-15 16:23N 51°45' E 006°25'7 8.4
2017-Jan-15 15:31N 51°40' E 006°32'28 6.9
2017-Jan-15 11:31N 51°13' E 006°45'20 0.4
2017-Jan-13 14:03N 51°33' E 006°41'6 3.6
2017-Jan-13 12:32N 51°38' E 006°35'3 3.3
2017-Jan-13 11:31N 51°40' E 006°31'8 3.9
2017-Jan-13 09:30N 51°45' E 006°22'5 5.6
2017-Jan-13 08:33N 51°49' E 006°16'5 5.2
2017-Jan-13 07:34N 51°51' E 006°08'4 3.8
2017-Jan-13 06:33N 51°52' E 006°03'2 1.6
2017-Jan-13 05:33N 51°54' E 006°01'1 0.7
2017-Jan-13 04:26N 51°54' E 006°01'0 0.0
2017-Jan-13 03:34N 51°54' E 006°01'0 0.0
2017-Jan-13 02:34N 51°54' E 006°01'0 0.0
2017-Jan-13 01:32N 51°54' E 006°01'0 0.0
2017-Jan-13 00:33N 51°54' E 006°01'0 0.0
2017-Jan-12 23:33N 51°54' E 006°01'0 0.0
2017-Jan-12 22:33N 51°54' E 006°01'0 0.0
2017-Jan-12 21:33N 51°54' E 006°01'1 1.4
2017-Jan-12 20:33N 51°55' E 005°59'3 3.2
2017-Jan-12 19:33N 51°58' E 005°59'2 2.3
2017-Jan-12 18:33N 51°60' E 006°02'2 2.1
2017-Jan-12 17:33N 51°60' E 006°05'3 2.8
2017-Jan-12 16:34N 52°02' E 006°08'2 2.1
2017-Jan-12 15:33N 52°04' E 006°09'7 1.5
2017-Jan-12 10:28N 52°10' E 006°16'6 6.8
2017-Jan-12 09:34N 52°10' E 006°26'6 5.9
2017-Jan-12 08:33N 52°13' E 006°34'7 3.6
2017-Jan-12 06:33N 52°15' E 006°46'1 1.2
2017-Jan-12 05:33N 52°15' E 006°48'0 0.0
2017-Jan-12 04:33N 52°15' E 006°48'0 0.0
2017-Jan-12 03:32N 52°15' E 006°48'0 0.0
2017-Jan-12 02:32N 52°15' E 006°48'0 0.0
2017-Jan-12 01:33N 52°15' E 006°48'0 0.0
2017-Jan-12 00:33N 52°15' E 006°48'0 0.3
2017-Jan-11 23:33N 52°15' E 006°48'0 0.0
2017-Jan-11 22:32N 52°15' E 006°48'0 0.0
2017-Jan-11 21:33N 52°15' E 006°48'6 2.6
2017-Jan-11 19:14N 52°14' E 006°38'8 7.1
2017-Jan-11 18:07N 52°10' E 006°27'4 7.2
2017-Jan-11 17:33N 52°10' E 006°20'10 1.9
2017-Jan-11 12:22N 52°03' E 006°08'4 4.8
2017-Jan-11 11:34N 52°00' E 006°05'6 5.5
2017-Jan-11 10:33N 51°57' E 005°57'8 8.1
2017-Jan-11 09:33N 51°51' E 006°06'9 8.6
2017-Jan-11 08:32N 51°48' E 006°19'11 7.7
2017-Jan-11 07:03N 51°40' E 006°32'3 6.2
2017-Jan-11 06:32N 51°37' E 006°35'25 2.7
2017-Jan-10 21:33N 51°13' E 006°43'  
Track history (hours):
 
Tides and Currents Weather Stations Pressure Air Temp Water Temp Dewpoint Dewpoint Depression Visibility Wind Speed Wind Dir Waves Ship Positions

Simcha

Last reported at 2017-Jan-20 19:32 UTC. Time now 2017-Jan-21 02:16 UTC.
Position N 52°15' E 006°48'.

Length 110 m.

Type: Ship. MMSI: 244780014.

Date/timePositionNaut miles runAvg speedWind from/ knotsBaromVisibWave heightAir tempDewpointWater temp
2017-Jan-20 19:32N 52°15' E 006°48'2 2.4
2017-Jan-20 18:33N 52°15' E 006°44'4 3.1
2017-Jan-20 17:13N 52°14' E 006°38'8 7.2
2017-Jan-20 16:07N 52°10' E 006°26'4 6.4
2017-Jan-20 15:32N 52°10' E 006°20'6 1.9
2017-Jan-20 12:23N 52°06' E 006°13'5 6.4
2017-Jan-20 11:33N 52°02' E 006°08'6 5.6
2017-Jan-20 10:34N 51°59' E 006°00'6 6.3
2017-Jan-20 09:33N 51°53' E 006°02'10 9.7
2017-Jan-20 08:34N 51°49' E 006°17'12 8.6
2017-Jan-20 07:07N 51°40' E 006°30'4 7.0
2017-Jan-20 06:33N 51°38' E 006°35'0 0.0
2017-Jan-18 17:31N 51°37' E 006°35'3 3.4
2017-Jan-18 16:33N 51°40' E 006°32'8 4.1
2017-Jan-18 14:33N 51°45' E 006°22'6 5.7
2017-Jan-18 13:33N 51°49' E 006°16'5 5.0
2017-Jan-18 12:33N 51°51' E 006°08'5 5.2
2017-Jan-18 11:34N 51°54' E 006°01'5 4.8
2017-Jan-18 10:33N 51°58' E 005°57'3 3.0
2017-Jan-18 09:33N 51°60' E 006°02'2 2.2
2017-Jan-18 08:33N 51°60' E 006°05'3 2.8
2017-Jan-18 07:33N 52°02' E 006°07'10 0.4
2017-Jan-17 08:09N 52°10' E 006°18'4 6.6
2017-Jan-17 07:32N 52°10' E 006°24'6 5.5
2017-Jan-17 06:26N 52°13' E 006°33'2 1.8
2017-Jan-17 05:34N 52°14' E 006°35'0 0.0
2017-Jan-17 04:33N 52°14' E 006°35'0 0.0
2017-Jan-17 03:34N 52°14' E 006°35'0 0.0
2017-Jan-17 02:34N 52°14' E 006°35'0 0.0
2017-Jan-17 01:34N 52°14' E 006°35'0 0.0
2017-Jan-17 00:34N 52°14' E 006°35'0 0.0
2017-Jan-16 23:33N 52°14' E 006°35'0 0.0
2017-Jan-16 22:34N 52°14' E 006°35'0 0.0
2017-Jan-16 21:34N 52°14' E 006°35'0 0.0
2017-Jan-16 20:34N 52°14' E 006°35'0 0.0
2017-Jan-16 19:34N 52°14' E 006°35'0 0.1
2017-Jan-16 18:34N 52°14' E 006°35'6 1.9
2017-Jan-16 15:33N 52°15' E 006°44'2 2.2
2017-Jan-16 14:33N 52°15' E 006°48'0 0.0
2017-Jan-16 13:33N 52°15' E 006°48'0 0.0
2017-Jan-16 12:32N 52°15' E 006°48'0 0.0
2017-Jan-16 11:32N 52°15' E 006°48'0 0.4
2017-Jan-16 10:33N 52°15' E 006°47'6 4.4
2017-Jan-16 09:15N 52°14' E 006°38'7 6.7
2017-Jan-16 08:12N 52°11' E 006°28'4 5.8
2017-Jan-16 07:32N 52°10' E 006°22'9 0.8
2017-Jan-15 20:31N 52°05' E 006°10'6 5.9
2017-Jan-15 19:33N 52°00' E 006°05'6 6.0
2017-Jan-15 18:33N 51°56' E 005°58'9 8.9
2017-Jan-15 17:33N 51°51' E 006°09'11 9.6
2017-Jan-15 16:23N 51°45' E 006°25'7 8.4
2017-Jan-15 15:31N 51°40' E 006°32'28 6.9
2017-Jan-15 11:31N 51°13' E 006°45'20 0.4
2017-Jan-13 14:03N 51°33' E 006°41'6 3.6
2017-Jan-13 12:32N 51°38' E 006°35'3 3.3
2017-Jan-13 11:31N 51°40' E 006°31'8 3.9
2017-Jan-13 09:30N 51°45' E 006°22'5 5.6
2017-Jan-13 08:33N 51°49' E 006°16'5 5.2
2017-Jan-13 07:34N 51°51' E 006°08'4 3.8
2017-Jan-13 06:33N 51°52' E 006°03'2 1.6
2017-Jan-13 05:33N 51°54' E 006°01'1 0.7
2017-Jan-13 04:26N 51°54' E 006°01'0 0.0
2017-Jan-13 03:34N 51°54' E 006°01'0 0.0
2017-Jan-13 02:34N 51°54' E 006°01'0 0.0
2017-Jan-13 01:32N 51°54' E 006°01'0 0.0
2017-Jan-13 00:33N 51°54' E 006°01'0 0.0
2017-Jan-12 23:33N 51°54' E 006°01'0 0.0
2017-Jan-12 22:33N 51°54' E 006°01'0 0.0
2017-Jan-12 21:33N 51°54' E 006°01'1 1.4
2017-Jan-12 20:33N 51°55' E 005°59'3 3.2
2017-Jan-12 19:33N 51°58' E 005°59'2 2.3
2017-Jan-12 18:33N 51°60' E 006°02'2 2.1
2017-Jan-12 17:33N 51°60' E 006°05'3 2.8
2017-Jan-12 16:34N 52°02' E 006°08'2 2.1
2017-Jan-12 15:33N 52°04' E 006°09'7 1.5
2017-Jan-12 10:28N 52°10' E 006°16'6 6.8
2017-Jan-12 09:34N 52°10' E 006°26'6 5.9
2017-Jan-12 08:33N 52°13' E 006°34'7 3.6
2017-Jan-12 06:33N 52°15' E 006°46'1 1.2
2017-Jan-12 05:33N 52°15' E 006°48'0 0.0
2017-Jan-12 04:33N 52°15' E 006°48'0 0.0
2017-Jan-12 03:32N 52°15' E 006°48'0 0.0
2017-Jan-12 02:32N 52°15' E 006°48'0 0.0
2017-Jan-12 01:33N 52°15' E 006°48'0 0.0
2017-Jan-12 00:33N 52°15' E 006°48'0 0.3
2017-Jan-11 23:33N 52°15' E 006°48'0 0.0
2017-Jan-11 22:32N 52°15' E 006°48'0 0.0
2017-Jan-11 21:33N 52°15' E 006°48'6 2.6
2017-Jan-11 19:14N 52°14' E 006°38'8 7.1
2017-Jan-11 18:07N 52°10' E 006°27'4 7.2
2017-Jan-11 17:33N 52°10' E 006°20'10 1.9
2017-Jan-11 12:22N 52°03' E 006°08'4 4.8
2017-Jan-11 11:34N 52°00' E 006°05'6 5.5
2017-Jan-11 10:33N 51°57' E 005°57'8 8.1
2017-Jan-11 09:33N 51°51' E 006°06'9 8.6
2017-Jan-11 08:32N 51°48' E 006°19'11 7.7
2017-Jan-11 07:03N 51°40' E 006°32'3 6.2
2017-Jan-11 06:32N 51°37' E 006°35'25 2.7
2017-Jan-10 21:33N 51°13' E 006°43'  

Dump ship's entire track history